Time;durP1;ratioP1;P1;durP2;ratioP2;P2;SDS_P1;SDS_P2;PMS_P1;PMS_P2;Temp;Humidity;BMP_temperature;BMP_pressure;BME280_temperature;BME280_humidity;BME280_pressure;Samples;Min_cycle;Max_cycle;Signal;HPM_P1;HPM_P2
2022/02/09 00:00:42;;;;;;;5.55;2.28;;;;;;;-2.05;84.90;96844.19;5000905;28;20046;-78
2022/02/09 00:03:18;;;;;;;8.32;2.55;;;;;;;-1.99;85.14;96840.97;4996506;28;20043;-78
2022/02/09 00:05:54;;;;;;;4.38;2.13;;;;;;;-2.06;84.41;96839.19;4995266;28;20050;-78
2022/02/09 00:08:21;;;;;;;5.63;2.60;;;;;;;-2.03;84.64;96844.81;5004442;28;20042;-77
2022/02/09 00:10:54;;;;;;;10.27;2.45;;;;;;;-2.11;85.11;96852.56;4995560;28;20042;-78
2022/02/09 00:13:43;;;;;;;7.70;2.38;;;;;;;-2.13;85.21;96849.31;5003908;28;20046;-78
2022/02/09 00:18:57;;;;;;;6.90;2.45;;;;;;;-2.36;85.27;96860.19;4998297;28;20102;-78
2022/02/09 00:24:09;;;;;;;5.93;2.13;;;;;;;-2.36;85.94;96849.88;4995838;28;20109;-78
2022/02/09 00:37:35;;;;;;;7.72;2.63;;;;;;;-2.40;86.55;96874.34;5003300;28;20049;-77
2022/02/09 00:40:32;;;;;;;5.90;2.55;;;;;;;-2.37;86.34;96876.63;4992625;28;20619;-77
2022/02/09 01:56:27;;;;;;;6.88;2.20;;;;;;;-2.71;89.97;96867.09;5001642;28;20056;-78
2022/02/09 01:58:54;;;;;;;4.03;1.80;;;;;;;-2.63;89.72;96862.00;4997263;28;20046;-78
2022/02/09 02:01:19;;;;;;;6.32;2.90;;;;;;;-2.61;89.73;96862.63;5008985;28;20077;-77
2022/02/09 02:03:45;;;;;;;4.25;2.35;;;;;;;-2.67;89.58;96863.25;4990351;28;20038;-77
2022/02/09 02:06:16;;;;;;;4.30;2.22;;;;;;;-2.59;90.16;96864.25;4986535;28;20118;-76
2022/02/09 02:08:43;;;;;;;4.53;2.00;;;;;;;-2.54;90.49;96856.84;4990493;28;20607;-77
2022/02/09 02:11:35;;;;;;;4.97;2.10;;;;;;;-2.46;90.08;96854.34;4989406;28;20123;-77
2022/02/09 02:16:42;;;;;;;5.82;2.03;;;;;;;-2.42;90.31;96855.66;4988589;28;20104;-77
2022/02/09 02:19:14;;;;;;;4.95;2.15;;;;;;;-2.42;90.42;96850.50;4989684;28;20050;-77
2022/02/09 03:14:16;;;;;;;5.82;2.40;;;;;;;-1.61;93.95;96805.25;4989473;28;20035;-77
2022/02/09 03:16:51;;;;;;;5.40;2.45;;;;;;;-1.66;93.91;96794.59;4988688;28;20053;-77
2022/02/09 03:22:26;;;;;;;5.10;2.55;;;;;;;-1.66;94.07;96794.59;4988770;28;20404;-77
2022/02/09 03:46:51;;;;;;;7.22;1.95;;;;;;;-1.70;94.03;96793.28;4988345;28;20063;-76
2022/02/09 03:51:45;;;;;;;3.85;1.90;;;;;;;-1.72;94.52;96784.91;4987863;28;20567;-77
2022/02/09 03:54:20;;;;;;;7.13;2.00;;;;;;;-1.87;94.97;96786.50;4973817;28;20039;-77
2022/02/09 03:56:59;;;;;;;3.42;1.90;;;;;;;-1.88;95.75;96784.88;4989490;28;20052;-77
2022/02/09 03:59:27;;;;;;;3.35;1.90;;;;;;;-1.87;95.27;96776.19;4991915;28;20618;-76
2022/02/09 04:01:52;;;;;;;5.15;1.98;;;;;;;-1.86;94.91;96773.44;4987773;28;20050;-76
2022/02/09 04:04:18;;;;;;;3.10;1.85;;;;;;;-1.93;94.80;96762.94;5000005;28;20516;-77
2022/02/09 04:06:48;;;;;;;4.10;2.20;;;;;;;-1.93;94.40;96762.94;5004259;28;20531;-76
2022/02/09 04:09:16;;;;;;;4.97;2.08;;;;;;;-2.21;95.85;96759.84;4988495;28;20038;-76
2022/02/09 04:14:21;;;;;;;5.85;2.45;;;;;;;-2.21;96.79;96759.00;4988997;28;20503;-77
2022/02/09 04:16:57;;;;;;;4.63;2.00;;;;;;;-2.23;95.98;96750.63;4996948;28;20050;-77
2022/02/09 04:38:35;;;;;;;4.40;1.80;;;;;;;-2.86;99.37;96730.31;4999719;28;20066;-77
2022/02/09 04:44:02;;;;;;;5.75;1.85;;;;;;;-3.03;100.00;96742.31;4992865;28;20046;-77
2022/02/09 04:49:05;;;;;;;4.70;1.90;;;;;;;-2.72;98.90;96726.31;4991541;28;20045;-77
2022/02/09 04:54:36;;;;;;;4.13;1.80;;;;;;;-2.57;97.83;96723.16;4998278;28;20145;-77
2022/02/09 04:57:07;;;;;;;4.22;2.05;;;;;;;-2.67;98.00;96728.44;4997699;28;20795;-76
2022/02/09 05:02:32;;;;;;;4.95;1.80;;;;;;;-2.79;98.81;96730.47;4989169;28;20058;-76
2022/02/09 05:26:20;;;;;;;;;;;;;;;-2.86;97.63;96724.34;4991301;28;20042;-75
2022/02/09 05:28:45;;;;;;;5.95;1.67;;;;;;;-2.85;97.71;96715.66;4991594;28;19922;-76
2022/02/09 05:31:11;;;;;;;4.15;2.10;;;;;;;-2.90;97.80;96717.88;4991834;28;20065;-76
2022/02/09 05:33:37;;;;;;;4.00;1.85;;;;;;;-2.99;97.93;96715.28;4991911;28;20497;-76
2022/02/09 05:36:03;;;;;;;4.55;1.95;;;;;;;-2.98;98.14;96724.59;4991302;28;20046;-76
2022/02/09 05:38:29;;;;;;;4.15;2.30;;;;;;;-3.05;98.13;96722.81;4991377;28;20050;-76
2022/02/09 05:40:55;;;;;;;3.67;1.85;;;;;;;-3.09;98.44;96727.44;4990902;28;20034;-76
2022/02/09 05:43:23;;;;;;;5.15;1.95;;;;;;;-3.09;98.75;96719.72;4994949;28;20049;-75
2022/02/09 05:51:16;;;;;;;7.68;2.17;;;;;;;-3.16;98.98;96724.69;4985584;28;20053;-76
2022/02/09 05:56:32;;;;;;;5.07;1.80;;;;;;;-3.19;99.29;96724.16;4992412;28;20069;-76
2022/02/09 06:01:39;;;;;;;3.63;1.63;;;;;;;-3.02;97.49;96710.41;4991250;28;20065;-76
2022/02/09 06:04:05;;;;;;;3.70;1.75;;;;;;;-3.13;98.07;96724.38;4996773;28;20049;-76
2022/02/09 06:06:31;;;;;;;3.08;1.83;;;;;;;-3.27;99.82;96727.50;4995294;28;20053;-76
2022/02/09 06:08:57;;;;;;;7.32;2.22;;;;;;;-3.28;99.61;96723.31;4990700;28;20046;-76
2022/02/09 06:11:31;;;;;;;4.10;1.83;;;;;;;-3.19;98.71;96729.31;4990259;28;20042;-76
2022/02/09 06:21:51;;;;;;;4.57;1.97;;;;;;;-3.29;99.84;96723.47;4994528;28;20496;-76
2022/02/09 06:24:17;;;;;;;4.35;2.10;;;;;;;-3.33;99.47;96723.78;4993642;28;20286;-76
2022/02/09 06:26:42;;;;;;;7.70;2.35;;;;;;;-3.32;99.40;96722.84;4986770;28;20553;-75
2022/02/09 06:29:09;;;;;;;6.78;1.92;;;;;;;-3.29;99.16;96723.47;4990168;28;20039;-76
2022/02/09 06:31:36;;;;;;;7.82;2.50;;;;;;;-3.34;99.23;96731.66;4988924;28;20042;-76
2022/02/09 06:34:02;;;;;;;3.92;2.10;;;;;;;-3.36;99.69;96724.09;4993273;28;20456;-76
2022/02/09 06:36:28;;;;;;;5.03;2.15;;;;;;;-3.32;99.34;96735.69;4990123;28;20763;-76
2022/02/09 06:38:55;;;;;;;6.45;2.00;;;;;;;-3.34;99.85;96737.59;4989585;28;20050;-76
2022/02/09 06:41:20;;;;;;;5.07;2.10;;;;;;;-3.34;99.65;96737.59;4989556;28;20042;-76
2022/02/09 06:43:46;;;;;;;6.28;2.28;;;;;;;-3.37;99.71;96742.25;4983088;28;20046;-76
2022/02/09 06:46:13;;;;;;;5.22;2.47;;;;;;;-3.25;99.25;96740.25;4989433;28;20035;-76
2022/02/09 06:48:40;;;;;;;4.25;1.98;;;;;;;-3.25;98.19;96735.88;4988898;28;20436;-76
2022/02/09 06:51:13;;;;;;;9.02;1.92;;;;;;;-3.20;99.24;96740.59;4990115;28;20046;-76
2022/02/09 06:54:27;;;;;;;4.03;2.10;;;;;;;-3.26;99.49;96733.47;4989364;28;20042;-76
2022/02/09 06:59:28;;;;;;;4.18;2.13;;;;;;;-3.40;100.00;96740.78;4977112;28;20041;-76
2022/02/09 07:01:53;;;;;;;;;;;;;;;-3.31;100.00;96737.28;4987466;28;20035;-73
2022/02/09 07:04:19;;;;;;;7.47;2.13;;;;;;;-3.26;99.64;96738.63;4973159;28;19929;-71
2022/02/09 07:06:44;;;;;;;3.85;1.92;;;;;;;-3.14;99.95;96737.41;4987915;28;20073;-74
2022/02/09 07:09:10;;;;;;;6.47;1.88;;;;;;;-3.07;99.84;96733.25;4989557;28;20042;-74
2022/02/09 07:11:35;;;;;;;4.57;2.20;;;;;;;-2.99;99.44;96740.22;4979448;28;20054;-75
2022/02/09 07:14:01;;;;;;;5.18;2.38;;;;;;;-3.04;99.58;96732.94;4989584;28;20089;-73
2022/02/09 07:16:28;;;;;;;4.80;2.10;;;;;;;-3.16;100.00;96729.00;4982434;28;20078;-74
2022/02/09 07:18:53;;;;;;;5.72;2.17;;;;;;;-3.20;100.00;96727.72;4989636;28;20057;-72
2022/02/09 07:21:24;;;;;;;7.10;2.30;;;;;;;-3.15;100.00;96722.91;4987705;28;20054;-73
2022/02/09 07:23:52;;;;;;;4.18;2.05;;;;;;;-3.09;100.00;96708.63;4989389;28;20054;-73
2022/02/09 07:26:26;;;;;;;7.93;2.30;;;;;;;-3.21;100.00;96720.94;4979510;28;20047;-74
2022/02/09 07:28:52;;;;;;;5.30;2.33;;;;;;;-3.21;100.00;96720.94;4988960;28;20387;-73
2022/02/09 07:31:19;;;;;;;6.60;2.35;;;;;;;-3.17;100.00;96717.13;4987411;28;20054;-72
2022/02/09 07:33:45;;;;;;;4.07;1.98;;;;;;;-3.17;100.00;96707.63;4988354;28;20038;-73
2022/02/09 07:36:13;;;;;;;9.25;2.22;;;;;;;-3.00;100.00;96715.44;4988235;28;20053;-76
2022/02/09 07:38:40;;;;;;;6.15;2.00;;;;;;;-3.00;100.00;96713.66;4984564;28;20035;-74
2022/02/09 07:41:06;;;;;;;10.27;2.38;;;;;;;-2.92;100.00;96709.50;4981794;28;20061;-75
2022/02/09 07:54:01;;;;;;;9.95;2.50;;;;;;;-2.45;100.00;96696.91;4989274;28;20081;-78
2022/02/09 07:56:38;;;;;;;12.40;2.20;;;;;;;-2.34;100.00;96698.41;4988097;28;20054;-76
2022/02/09 07:59:06;;;;;;;5.88;1.80;;;;;;;-2.31;100.00;96700.66;4987098;28;20046;-74
2022/02/09 08:01:32;;;;;;;3.60;1.48;;;;;;;-2.22;100.00;96690.38;4994468;28;20526;-75
2022/02/09 08:03:58;;;;;;;4.05;1.73;;;;;;;-2.12;100.00;96691.03;4988281;28;20053;-75
2022/02/09 08:06:24;;;;;;;3.75;1.70;;;;;;;-2.05;100.00;96694.56;4988201;28;20046;-76
2022/02/09 08:08:51;;;;;;;2.95;1.63;;;;;;;-1.81;100.00;96692.94;4988933;28;20389;-75
2022/02/09 08:11:26;;;;;;;3.08;1.70;;;;;;;-1.58;100.00;96693.09;5004090;28;20049;-74
2022/02/09 08:32:37;;;;;;;2.42;1.27;;;;;;;0.70;89.00;96692.97;4995192;28;20043;-78
2022/02/09 08:35:04;;;;;;;3.22;1.38;;;;;;;1.08;87.03;96685.13;4995240;28;20043;-75
2022/02/09 08:37:30;;;;;;;3.70;1.60;;;;;;;1.33;86.27;96687.41;4992084;28;20052;-76
2022/02/09 08:39:56;;;;;;;4.05;1.40;;;;;;;1.88;83.15;96691.19;4992265;28;20125;-75
2022/02/09 08:42:23;;;;;;;4.15;1.50;;;;;;;1.96;82.41;96686.88;5006070;28;20096;-76
2022/02/09 08:44:48;;;;;;;2.08;1.08;;;;;;;2.33;80.10;96690.16;4996947;28;20043;-75
2022/02/09 08:47:14;;;;;;;2.78;1.33;;;;;;;2.71;78.87;96689.84;4994543;28;20509;-76
2022/02/09 08:49:40;;;;;;;4.15;1.70;;;;;;;2.92;76.89;96687.19;4994315;28;20045;-77
2022/02/09 08:52:06;;;;;;;4.13;1.50;;;;;;;2.72;77.95;96687.06;5001832;28;20456;-77
2022/02/09 08:54:31;;;;;;;3.55;1.52;;;;;;;2.69;78.47;96681.47;4992078;28;20039;-77
2022/02/09 08:56:58;;;;;;;5.43;1.80;;;;;;;2.91;77.21;96680.38;4996775;28;21594;-76
2022/02/09 08:59:28;;;;;;;3.28;1.95;;;;;;;3.06;77.22;96676.84;5006230;28;20129;-75
2022/02/09 09:01:57;;;;;;;4.28;1.90;;;;;;;3.32;74.96;96675.38;4983454;28;20046;-76
2022/02/09 09:04:28;;;;;;;3.53;1.45;;;;;;;3.24;75.39;96679.75;4991068;28;20570;-76
2022/02/09 09:06:56;;;;;;;2.75;1.60;;;;;;;3.22;76.11;96676.53;4991494;28;20154;-76
2022/02/09 09:17:33;;;;;;;6.45;1.58;;;;;;;3.58;73.42;96675.47;4988895;28;20512;-75
2022/02/09 10:34:20;;;;;;;3.40;1.40;;;;;;;13.52;41.45;96650.88;4985741;28;20038;-74
2022/02/09 10:36:50;;;;;;;3.58;1.30;;;;;;;13.81;39.57;96634.53;4987794;28;20118;-74
2022/02/09 10:39:25;;;;;;;2.45;1.15;;;;;;;13.22;38.56;96631.16;4988174;28;20049;-74
2022/02/09 10:41:50;;;;;;;;;;;;;;;13.45;39.06;96631.81;4982840;28;20109;-74
2022/02/09 10:44:21;;;;;;;1.85;1.30;;;;;;;13.43;39.11;96612.75;5004688;28;19921;-75
2022/02/09 10:47:05;;;;;;;2.03;1.27;;;;;;;14.33;38.00;96614.97;4986532;28;20485;-74
2022/02/09 10:49:31;;;;;;;1.48;1.00;;;;;;;13.98;37.12;96616.56;4988889;28;20056;-74
2022/02/09 10:54:28;;;;;;;3.17;1.40;;;;;;;14.84;35.54;96619.44;4989109;28;20117;-74
2022/02/09 10:56:57;;;;;;;2.88;1.35;;;;;;;14.08;36.20;96622.91;4987089;28;20108;-74
2022/02/09 10:59:25;;;;;;;4.35;1.48;;;;;;;15.18;35.40;96613.47;4986756;28;20054;-74
2022/02/09 11:01:52;;;;;;;1.90;1.40;;;;;;;15.09;35.34;96609.81;4989930;28;20046;-75
2022/02/09 11:04:18;;;;;;;2.60;1.40;;;;;;;15.21;34.52;96612.16;4988844;28;20602;-75
2022/02/09 11:06:46;;;;;;;3.30;1.30;;;;;;;15.50;33.95;96611.47;4997549;28;20037;-74
2022/02/09 11:09:14;;;;;;;2.35;1.20;;;;;;;15.12;34.86;96609.25;4993323;28;20097;-75
2022/02/09 11:11:42;;;;;;;3.58;1.30;;;;;;;15.13;35.07;96612.69;4987697;28;20416;-74
2022/02/09 11:14:12;;;;;;;2.38;1.30;;;;;;;15.12;35.31;96608.47;4992496;28;20038;-75
2022/02/09 11:16:39;;;;;;;6.03;1.50;;;;;;;16.24;33.57;96606.25;4984015;28;20092;-75
2022/02/09 11:19:06;;;;;;;2.47;1.40;;;;;;;15.97;33.25;96607.50;4987236;28;20054;-74
2022/02/09 11:21:36;;;;;;;3.85;1.45;;;;;;;15.66;33.91;96604.22;5003995;28;20050;-75
2022/02/09 11:24:15;;;;;;;1.35;1.13;;;;;;;15.39;34.27;96598.28;4988950;28;20512;-74
2022/02/09 11:37:48;;;;;;;4.45;1.40;;;;;;;16.07;32.63;96575.56;4987388;28;20074;-74
2022/02/09 11:40:37;;;;;;;3.17;1.30;;;;;;;16.62;33.99;96579.84;4996922;28;20035;-74
2022/02/09 11:43:34;;;;;;;2.20;1.50;;;;;;;17.44;31.25;96573.59;4989062;28;20042;-74
2022/02/09 12:11:30;;;;;;;1.73;1.30;;;;;;;16.28;34.59;96538.22;4995105;28;20059;-75
2022/02/09 12:19:37;;;;;;;3.53;1.20;;;;;;;17.67;33.84;96528.56;4989938;28;20053;-73
2022/02/09 12:22:12;;;;;;;2.17;1.23;;;;;;;17.54;32.52;96526.63;4997816;28;20055;-73
2022/02/09 12:24:38;;;;;;;4.00;1.30;;;;;;;17.12;33.38;96529.06;4993153;28;20129;-73
2022/02/09 12:27:07;;;;;;;3.50;1.10;;;;;;;16.62;33.86;96526.69;4992685;28;20082;-71
2022/02/09 12:29:36;;;;;;;1.15;1.00;;;;;;;17.30;32.92;96514.19;4979463;28;20067;-74
2022/02/09 12:32:16;;;;;;;2.15;1.20;;;;;;;17.16;33.64;96508.00;4989505;28;20046;-73
2022/02/09 12:34:59;;;;;;;5.57;1.60;;;;;;;17.45;35.41;96510.50;4992198;28;20049;-74
2022/02/09 12:37:30;;;;;;;2.58;1.40;;;;;;;17.21;33.77;96507.91;4991003;28;20042;-74
2022/02/09 12:40:13;;;;;;;1.52;1.40;;;;;;;17.66;32.05;96505.69;4986424;28;20043;-73
2022/02/09 12:42:44;;;;;;;2.22;1.10;;;;;;;18.06;32.85;96502.66;4990426;28;20038;-73
2022/02/09 12:45:14;;;;;;;1.85;1.27;;;;;;;17.70;33.08;96500.56;4985227;28;20110;-73
2022/02/09 12:47:44;;;;;;;2.15;1.40;;;;;;;16.49;35.75;96501.59;4997610;28;20693;-73
2022/02/09 12:50:18;;;;;;;1.75;1.27;;;;;;;17.53;33.38;96495.75;4993925;28;20038;-74
2022/02/09 12:52:46;;;;;;;2.20;1.30;;;;;;;16.47;34.58;96502.97;5000464;28;20504;-73
2022/02/09 12:55:17;;;;;;;3.10;1.45;;;;;;;15.76;35.03;96501.47;4979424;28;20097;-73
2022/02/09 12:57:51;;;;;;;3.13;1.30;;;;;;;17.12;34.08;96489.97;4984636;28;20092;-75
2022/02/09 13:00:24;;;;;;;4.03;1.30;;;;;;;17.13;33.83;96493.41;4988157;28;20062;-71
2022/02/09 13:02:51;;;;;;;1.90;1.10;;;;;;;17.08;34.22;96491.63;4990590;28;20046;-74
2022/02/09 13:05:17;;;;;;;1.52;1.08;;;;;;;16.89;35.82;96493.47;4985679;28;20046;-74
2022/02/09 13:07:54;;;;;;;5.68;0.98;;;;;;;16.47;35.32;96495.00;4985397;28;20097;-75
2022/02/09 13:10:39;;;;;;;1.65;1.10;;;;;;;15.69;37.53;96489.59;4995877;28;20047;-72
2022/02/09 13:13:15;;;;;;;2.13;1.08;;;;;;;15.02;38.52;96488.16;5007477;28;20092;-71
2022/02/09 13:15:57;;;;;;;3.22;1.08;;;;;;;14.52;38.03;96479.34;4986665;28;20053;-74
2022/02/09 13:52:11;;;;;;;3.20;1.20;;;;;;;10.94;49.95;96475.94;4991317;28;20061;-73
2022/02/09 14:54:05;;;;;;;2.67;1.40;;;;;;;9.72;54.35;96424.94;4981346;28;20054;-73
2022/02/09 15:00:21;;;;;;;2.65;1.17;;;;;;;10.37;52.80;96420.00;4997653;28;20061;-74
2022/02/09 15:02:33;;;;;;;3.88;1.17;;;;;;;10.38;52.51;96422.41;4961981;28;20055;-74
2022/02/09 15:07:49;;;;;;;2.67;1.20;;;;;;;10.23;53.80;96425.63;4975837;28;20078;-74
2022/02/09 15:10:25;;;;;;;3.00;1.20;;;;;;;10.21;53.92;96422.44;4988617;28;20068;-74
2022/02/09 15:13:00;;;;;;;2.53;1.33;;;;;;;10.33;53.20;96413.63;4989566;28;20046;-73
2022/02/09 15:23:01;;;;;;;1.60;1.17;;;;;;;10.01;54.25;96401.13;4986876;28;20042;-77
2022/02/09 15:25:32;;;;;;;2.38;1.10;;;;;;;10.18;53.41;96401.09;4988575;28;20054;-77
2022/02/09 15:28:00;;;;;;;2.00;1.10;;;;;;;10.15;53.55;96407.63;4988205;28;20044;-73
2022/02/09 15:30:28;;;;;;;2.72;1.05;;;;;;;10.18;53.41;96401.09;4982457;28;20054;-75
2022/02/09 15:32:56;;;;;;;4.05;1.30;;;;;;;9.71;55.76;96402.31;4988817;28;20042;-77
2022/02/09 15:35:35;;;;;;;2.28;1.20;;;;;;;9.91;54.42;96401.00;4988502;28;20050;-76
2022/02/09 15:38:08;;;;;;;1.98;1.02;;;;;;;9.93;54.78;96393.66;4985551;28;20046;-74
2022/02/09 15:40:40;;;;;;;2.63;1.20;;;;;;;10.01;54.29;96391.44;4988960;28;20077;-75
2022/02/09 16:23:15;;;;;;;3.77;1.90;;;;;;;7.08;66.00;96394.69;4988262;28;20046;-73
2022/02/09 16:44:40;;;;;;;10.93;2.30;;;;;;;5.69;71.54;96398.78;4993325;28;20579;-76
2022/02/09 16:50:14;;;;;;;8.45;2.35;;;;;;;5.43;72.02;96399.00;4965791;28;20054;-80
2022/02/09 16:53:05;;;;;;;12.15;2.78;;;;;;;5.27;72.58;96395.97;4997858;28;20038;-78
2022/02/09 17:19:45;;;;;;;15.00;2.53;;;;;;;4.78;76.28;96387.06;4995905;28;20452;-77
2022/02/09 17:22:11;;;;;;;8.30;2.25;;;;;;;4.60;76.57;96375.53;4992550;28;20054;-78
2022/02/09 17:24:38;;;;;;;8.13;2.60;;;;;;;4.50;76.45;96375.19;4993422;28;20459;-75
2022/02/09 17:27:07;;;;;;;7.25;2.83;;;;;;;3.89;77.85;96379.84;4993947;28;20046;-76
2022/02/09 17:32:43;;;;;;;9.18;2.28;;;;;;;4.22;77.87;96373.72;5000848;28;20169;-75
2022/02/09 17:35:23;;;;;;;9.30;2.33;;;;;;;4.10;77.81;96380.59;4993399;28;20034;-76
2022/02/09 17:54:04;;;;;;;13.27;2.58;;;;;;;3.45;81.20;96389.19;4994794;28;20045;-74
2022/02/09 17:56:36;;;;;;;6.63;2.08;;;;;;;3.42;81.57;96381.75;4997563;28;20046;-76
2022/02/09 17:59:03;;;;;;;5.25;2.03;;;;;;;3.33;81.80;96380.38;5005972;28;20113;-75
2022/02/09 18:01:29;;;;;;;6.15;1.92;;;;;;;3.24;81.21;96377.97;5006438;28;20093;-77
2022/02/09 18:03:55;;;;;;;6.85;1.70;;;;;;;3.09;83.18;96382.59;4995094;28;20042;-77
2022/02/09 18:06:26;;;;;;;6.35;1.95;;;;;;;3.04;83.53;96383.16;4994051;28;20122;-76
2022/02/09 18:39:46;;;;;;;4.93;2.15;;;;;;;1.44;87.94;96373.06;4991158;28;20043;-77
2022/02/09 18:44:20;;;;;;;4.15;2.00;;;;;;;1.61;86.69;96375.34;4993625;28;20511;-77
2022/02/09 19:00:33;;;;;;;9.77;4.00;;;;;;;1.27;88.49;96366.56;4985716;28;20042;-73
2022/02/09 19:03:06;;;;;;;17.02;5.38;;;;;;;1.17;89.02;96362.50;4988862;28;20046;-72
2022/02/09 19:05:39;;;;;;;13.70;5.30;;;;;;;1.05;89.14;96364.03;4987559;28;20038;-72
2022/02/09 19:48:36;;;;;;;10.15;2.05;;;;;;;-0.12;91.97;96352.13;4987698;28;20404;-74
2022/02/09 19:53:57;;;;;;;6.60;2.22;;;;;;;-0.27;92.22;96360.69;4988986;28;20038;-72
2022/02/09 19:56:25;;;;;;;4.93;1.80;;;;;;;-0.40;93.69;96365.69;4987510;28;20105;-73
2022/02/09 20:01:18;;;;;;;5.07;1.85;;;;;;;-0.55;94.54;96363.09;5001820;28;20141;-75
2022/02/09 20:03:45;;;;;;;8.98;2.13;;;;;;;-0.42;93.96;96354.72;5006746;28;20045;-75
2022/02/09 20:06:11;;;;;;;3.53;1.73;;;;;;;-0.34;92.75;96359.81;4997325;28;20049;-76
2022/02/09 20:08:37;;;;;;;4.75;2.00;;;;;;;-0.46;93.21;96356.06;4993391;28;20531;-75
2022/02/09 20:11:09;;;;;;;8.13;2.30;;;;;;;-0.77;94.59;96354.44;4994728;28;20046;-75
2022/02/09 20:13:36;;;;;;;7.25;2.33;;;;;;;-0.50;93.56;96359.97;4998286;28;20517;-74
2022/02/09 20:16:03;;;;;;;5.78;2.45;;;;;;;-0.64;93.76;96349.47;4994935;28;20042;-76
2022/02/09 20:18:32;;;;;;;5.78;2.15;;;;;;;-0.73;94.83;96345.38;4991610;28;20070;-76
2022/02/09 20:20:59;;;;;;;6.35;2.45;;;;;;;-0.75;94.15;96348.13;4996878;28;20038;-75
2022/02/09 20:23:24;;;;;;;6.38;2.65;;;;;;;-0.84;94.94;96349.16;4992249;28;20535;-74
2022/02/09 20:25:50;;;;;;;10.93;2.92;;;;;;;-0.99;95.82;96350.91;4995152;28;20043;-75
2022/02/09 20:28:17;;;;;;;7.18;2.90;;;;;;;-0.85;94.99;96357.09;4997287;28;20141;-75
2022/02/09 20:30:49;;;;;;;7.53;2.70;;;;;;;-0.84;94.46;96348.38;5004007;28;20169;-74
2022/02/09 20:33:19;;;;;;;7.22;2.85;;;;;;;-1.01;94.98;96353.69;5007382;28;20065;-76
2022/02/09 20:35:45;;;;;;;6.57;2.60;;;;;;;-0.91;95.48;96349.06;4996807;28;20042;-78
2022/02/09 20:38:17;;;;;;;5.20;2.80;;;;;;;-0.93;95.01;96351.03;4997546;28;20053;-75
2022/02/09 20:40:52;;;;;;;6.95;2.80;;;;;;;-0.90;94.77;96355.84;4996723;28;20042;-75
2022/02/09 20:43:21;;;;;;;5.93;2.80;;;;;;;-1.12;96.10;96346.34;4994022;28;20046;-73
2022/02/09 20:45:52;;;;;;;8.65;2.97;;;;;;;-1.11;95.61;96347.97;5003064;28;20104;-75
2022/02/09 20:48:24;;;;;;;8.57;3.03;;;;;;;-1.01;94.70;96348.50;4997774;28;20053;-74
2022/02/09 20:50:51;;;;;;;10.32;3.55;;;;;;;-1.01;94.99;96353.69;5004223;28;20047;-76
2022/02/09 20:53:16;;;;;;;10.15;3.97;;;;;;;-1.23;96.04;96356.13;5002086;28;20046;-76
2022/02/09 20:55:42;;;;;;;8.05;3.50;;;;;;;-1.27;96.97;96359.25;4996413;28;20041;-75
2022/02/09 20:58:08;;;;;;;9.05;4.05;;;;;;;-1.24;97.10;96349.34;5000463;28;20038;-74
2022/02/09 21:00:41;;;;;;;14.32;3.97;;;;;;;-1.30;96.67;96350.03;5002141;28;20168;-73
2022/02/09 21:11:02;;;;;;;9.90;4.05;;;;;;;-1.23;96.11;96340.63;4996490;28;20125;-74
2022/02/09 21:32:14;;;;;;;11.98;4.75;;;;;;;-1.75;97.48;96342.13;4998977;28;20055;-76
2022/02/09 21:58:47;;;;;;;13.05;3.90;;;;;;;-1.63;97.92;96334.78;4987648;28;20614;-76
2022/02/09 22:01:37;;;;;;;8.38;3.58;;;;;;;-1.77;97.55;96338.94;4998005;28;20046;-77
2022/02/09 22:20:37;;;;;;;6.60;2.93;;;;;;;-1.83;98.19;96318.97;4981510;28;20050;-76
2022/02/09 22:28:17;;;;;;;7.30;3.17;;;;;;;-1.91;98.47;96313.88;4990665;28;20456;-76
2022/02/09 22:55:06;;;;;;;6.35;2.90;;;;;;;-1.93;97.46;96306.28;4989558;28;20142;-74
2022/02/09 23:00:14;;;;;;;6.93;2.65;;;;;;;-2.03;97.71;96295.38;4989124;28;20038;-73
2022/02/09 23:02:44;;;;;;;5.63;2.75;;;;;;;-1.99;97.51;96288.91;4989394;28;20696;-74
2022/02/09 23:08:12;;;;;;;6.50;2.70;;;;;;;-2.19;99.31;96292.91;4989878;28;20542;-74
2022/02/09 23:11:36;;;;;;;6.85;3.30;;;;;;;-2.02;97.69;96299.56;4998092;28;20500;-73
2022/02/09 23:13:41;;;;;;;5.90;2.60;;;;;;;-2.27;98.64;96297.13;5000860;28;20062;-74
